createdAt,value
2017-02-04T00:00:27.608Z,995.11
2017-02-04T00:01:37.479Z,995.13
2017-02-04T00:02:47.710Z,995.1
2017-02-04T00:03:58.133Z,995.08
2017-02-04T00:05:08.377Z,995.12
2017-02-04T00:06:19.315Z,995.07
2017-02-04T00:07:28.777Z,995.11
2017-02-04T00:08:38.662Z,995.11
2017-02-04T00:09:49.665Z,995.15
2017-02-04T00:10:59.531Z,995.21
2017-02-04T00:12:09.773Z,995.24
2017-02-04T00:13:20.024Z,995.27
2017-02-04T00:14:30.276Z,995.27
2017-02-04T00:15:40.045Z,995.31
2017-02-04T00:16:49.945Z,995.25
2017-02-04T00:18:00.594Z,995.2
2017-02-04T00:19:10.833Z,995.25
2017-02-04T00:20:21.080Z,995.2
2017-02-04T00:21:32.075Z,995.19
2017-02-04T00:22:42.311Z,995.23
2017-02-04T00:23:52.165Z,995.21
2017-02-04T00:25:02.033Z,995.23
2017-02-04T00:26:12.283Z,995.23
2017-02-04T00:27:22.497Z,995.22
2017-02-04T00:28:32.771Z,995.25
2017-02-04T00:29:43.047Z,995.26
2017-02-04T00:30:53.293Z,995.24
2017-02-04T00:32:03.539Z,995.27
2017-02-04T00:33:13.646Z,995.29
2017-02-04T00:34:24.311Z,995.3
2017-02-04T00:35:34.967Z,995.34
2017-02-04T00:36:45.212Z,995.37
2017-02-04T00:37:55.452Z,995.42
2017-02-04T00:39:06.376Z,995.46
2017-02-04T00:40:16.623Z,995.52
2017-02-04T00:41:27.257Z,995.5
2017-02-04T00:42:37.507Z,995.52
2017-02-04T00:43:48.147Z,995.58
2017-02-04T00:44:58.306Z,995.55
2017-02-04T00:46:08.562Z,995.58
2017-02-04T00:47:19.214Z,995.52
2017-02-04T00:48:29.863Z,995.52
2017-02-04T00:49:40.510Z,995.53
2017-02-04T00:50:51.401Z,995.53
2017-02-04T00:52:01.694Z,995.53
2017-02-04T00:53:11.935Z,995.52
2017-02-04T00:54:22.187Z,995.56
2017-02-04T00:55:32.456Z,995.52
2017-02-04T00:56:42.948Z,995.56
2017-02-04T00:57:52.801Z,995.59
2017-02-04T00:59:02.704Z,995.61
2017-02-04T01:00:12.966Z,995.62
2017-02-04T01:01:22.853Z,995.62
2017-02-04T01:02:33.847Z,995.61
2017-02-04T01:03:43.711Z,995.62
2017-02-04T01:04:53.580Z,995.62
2017-02-04T01:06:03.826Z,995.65
2017-02-04T01:07:14.466Z,995.7
2017-02-04T01:08:25.266Z,995.7
2017-02-04T01:09:35.888Z,995.71
2017-02-04T01:10:46.536Z,995.75
2017-02-04T01:11:56.784Z,995.75
2017-02-04T01:13:07.032Z,995.78
2017-02-04T01:14:17.923Z,995.81
2017-02-04T01:15:28.568Z,995.8
2017-02-04T01:16:39.206Z,995.82
2017-02-04T01:17:48.682Z,995.87
2017-02-04T01:18:58.936Z,995.87
2017-02-04T01:20:09.360Z,995.86
2017-02-04T01:21:19.611Z,995.95
2017-02-04T01:22:29.857Z,995.93
2017-02-04T01:23:40.490Z,995.99
2017-02-04T01:24:50.365Z,995.97
2017-02-04T01:26:00.571Z,996.05
2017-02-04T01:27:11.202Z,996.05
2017-02-04T01:28:21.868Z,996.09
2017-02-04T01:29:32.132Z,996.07
2017-02-04T01:30:42.768Z,996.11
2017-02-04T01:31:53.674Z,996.19
2017-02-04T01:33:04.349Z,996.17
2017-02-04T01:34:15.003Z,996.09
2017-02-04T01:35:25.635Z,996.3
2017-02-04T01:36:35.489Z,996.29
2017-02-04T01:37:45.525Z,996.34
2017-02-04T01:38:54.619Z,996.32
2017-02-04T01:40:04.858Z,996.25
2017-02-04T01:41:15.114Z,996.3
2017-02-04T01:42:25.760Z,996.33
2017-02-04T01:43:36.316Z,996.35
2017-02-04T01:44:46.603Z,996.4
2017-02-04T01:45:56.468Z,996.45
2017-02-04T01:47:06.717Z,996.59
2017-02-04T01:48:16.974Z,996.51
2017-02-04T01:49:27.484Z,996.56
2017-02-04T01:50:38.140Z,996.54
2017-02-04T01:51:48.783Z,996.58
2017-02-04T01:52:58.634Z,996.63
2017-02-04T01:54:07.715Z,996.57
2017-02-04T01:55:18.499Z,996.62
2017-02-04T01:56:29.162Z,996.64
2017-02-04T01:57:39.398Z,996.67
2017-02-04T01:58:49.247Z,996.66
2017-02-04T01:59:59.885Z,996.7
2017-02-04T02:01:10.119Z,996.64
2017-02-04T02:02:20.760Z,996.68
2017-02-04T02:03:31.438Z,996.68
2017-02-04T02:04:42.082Z,996.71
2017-02-04T02:05:52.343Z,996.72
2017-02-04T02:07:03.264Z,996.74
2017-02-04T02:08:13.496Z,996.79
2017-02-04T02:09:23.760Z,996.79
2017-02-04T02:10:34.440Z,996.81
2017-02-04T02:11:44.683Z,996.77
2017-02-04T02:12:55.174Z,996.76
2017-02-04T02:14:05.047Z,996.73
2017-02-04T02:15:15.292Z,996.73
2017-02-04T02:16:25.932Z,996.73
2017-02-04T02:17:36.601Z,996.72
2017-02-04T02:18:47.215Z,996.72
2017-02-04T02:19:57.486Z,996.68
2017-02-04T02:21:08.130Z,996.69
2017-02-04T02:22:17.987Z,996.71
2017-02-04T02:23:28.234Z,996.72
2017-02-04T02:24:39.240Z,996.66
2017-02-04T02:25:49.896Z,996.7
2017-02-04T02:27:00.128Z,996.67
2017-02-04T02:28:10.027Z,996.68
2017-02-04T02:29:20.303Z,996.71
2017-02-04T02:30:31.294Z,996.74
2017-02-04T02:31:41.572Z,996.67
2017-02-04T02:32:51.844Z,996.72
2017-02-04T02:34:02.487Z,996.69
2017-02-04T02:35:12.336Z,996.73
2017-02-04T02:36:22.851Z,996.76
2017-02-04T02:37:32.721Z,996.8
2017-02-04T02:38:42.957Z,996.88
2017-02-04T02:39:53.224Z,996.9
2017-02-04T02:41:03.471Z,996.93
2017-02-04T02:42:14.373Z,996.92
2017-02-04T02:43:24.258Z,996.96
2017-02-04T02:44:34.906Z,996.97
2017-02-04T02:45:45.172Z,996.98
2017-02-04T02:46:55.811Z,996.95
2017-02-04T02:48:06.192Z,996.94
2017-02-04T02:49:16.821Z,996.93
2017-02-04T02:50:27.458Z,996.89
2017-02-04T02:51:36.908Z,996.94
2017-02-04T02:52:46.768Z,996.93
2017-02-04T02:53:57.181Z,996.99
2017-02-04T02:55:07.447Z,996.96
2017-02-04T02:56:17.850Z,997
2017-02-04T02:57:28.140Z,997.02
2017-02-04T02:58:38.385Z,997.06
2017-02-04T02:59:49.336Z,997.05
2017-02-04T03:00:59.631Z,997.09
2017-02-04T03:02:09.499Z,997.09
2017-02-04T03:03:20.147Z,997.1
2017-02-04T03:04:30.419Z,997.19
2017-02-04T03:05:41.577Z,997.18
2017-02-04T03:06:50.675Z,997.19
2017-02-04T03:08:00.931Z,997.23
2017-02-04T03:09:11.175Z,997.25
2017-02-04T03:10:21.419Z,997.26
2017-02-04T03:11:32.408Z,997.28
2017-02-04T03:12:43.046Z,997.25
2017-02-04T03:13:53.712Z,997.31
2017-02-04T03:15:03.978Z,997.33
2017-02-04T03:16:14.649Z,997.32
2017-02-04T03:17:25.198Z,997.35
2017-02-04T03:18:35.446Z,997.34
2017-02-04T03:19:45.358Z,997.33
2017-02-04T03:20:55.612Z,997.34
2017-02-04T03:22:04.728Z,997.34
2017-02-04T03:23:15.533Z,997.35
2017-02-04T03:24:25.805Z,997.35
2017-02-04T03:25:36.428Z,997.34
2017-02-04T03:26:46.673Z,997.36
2017-02-04T03:27:56.553Z,997.37
2017-02-04T03:29:07.437Z,997.39
2017-02-04T03:30:17.710Z,997.39
2017-02-04T03:31:28.343Z,997.4
2017-02-04T03:32:39.008Z,997.38
2017-02-04T03:33:49.649Z,997.39
2017-02-04T03:35:00.034Z,997.39
2017-02-04T03:36:10.316Z,997.38
2017-02-04T03:37:20.580Z,997.43
2017-02-04T03:38:30.426Z,997.38
2017-02-04T03:39:40.306Z,997.38
2017-02-04T03:40:50.908Z,997.4
2017-02-04T03:42:00.767Z,997.41
2017-02-04T03:43:11.400Z,997.38
2017-02-04T03:44:22.048Z,997.37
2017-02-04T03:45:31.135Z,997.36
2017-02-04T03:46:41.919Z,997.35
2017-02-04T03:47:52.191Z,997.31
2017-02-04T03:49:02.880Z,997.34
2017-02-04T03:50:13.126Z,997.32
2017-02-04T03:51:23.368Z,997.32
2017-02-04T03:52:34.298Z,997.32
2017-02-04T03:53:44.553Z,997.29
2017-02-04T03:54:54.811Z,997.26
2017-02-04T03:56:05.450Z,997.28
2017-02-04T03:57:15.327Z,997.25
2017-02-04T03:58:25.827Z,997.22
2017-02-04T03:59:36.081Z,997.23
2017-02-04T04:00:45.950Z,997.27
2017-02-04T04:01:56.589Z,997.23
2017-02-04T04:03:06.831Z,997.2
2017-02-04T04:04:17.467Z,997.21
2017-02-04T04:05:27.718Z,997.23
2017-02-04T04:06:38.512Z,997.24
2017-02-04T04:07:48.781Z,997.17
2017-02-04T04:08:59.028Z,997.24
2017-02-04T04:10:10.034Z,997.21
2017-02-04T04:11:19.904Z,997.21
2017-02-04T04:12:30.562Z,997.24
2017-02-04T04:13:41.201Z,997.23
2017-02-04T04:14:51.822Z,997.25
2017-02-04T04:16:02.619Z,997.29
2017-02-04T04:17:12.858Z,997.24
2017-02-04T04:18:23.130Z,997.27
2017-02-04T04:19:33.764Z,997.27
2017-02-04T04:20:44.024Z,997.28
2017-02-04T04:21:55.007Z,997.24
2017-02-04T04:23:05.671Z,997.32
2017-02-04T04:24:16.306Z,997.26
2017-02-04T04:25:26.942Z,997.33
2017-02-04T04:26:36.860Z,997.33
2017-02-04T04:27:47.848Z,997.32
2017-02-04T04:28:58.118Z,997.38
2017-02-04T04:30:08.387Z,997.43
2017-02-04T04:31:18.254Z,997.46
2017-02-04T04:32:28.501Z,997.52
2017-02-04T04:33:39.427Z,997.51
2017-02-04T04:34:49.681Z,997.53
2017-02-04T04:35:59.965Z,997.49
2017-02-04T04:37:09.821Z,997.47
2017-02-04T04:38:20.466Z,997.51
2017-02-04T04:39:31.403Z,997.49
2017-02-04T04:40:42.057Z,997.55
2017-02-04T04:41:51.912Z,997.53
2017-02-04T04:43:02.191Z,997.55
2017-02-04T04:44:12.841Z,997.6
2017-02-04T04:45:23.416Z,997.67
2017-02-04T04:46:33.688Z,997.71
2017-02-04T04:47:43.948Z,997.71
2017-02-04T04:48:54.258Z,997.69
2017-02-04T04:50:03.737Z,997.68
2017-02-04T04:51:14.463Z,997.69
2017-02-04T04:52:25.130Z,997.7
2017-02-04T04:53:35.809Z,997.66
2017-02-04T04:54:46.055Z,997.65
2017-02-04T04:55:56.737Z,997.7
2017-02-04T04:57:07.740Z,997.65
2017-02-04T04:58:18.028Z,997.61
2017-02-04T04:59:27.893Z,997.58
2017-02-04T05:00:38.540Z,997.54
2017-02-04T05:01:48.845Z,997.53
2017-02-04T05:02:59.465Z,997.55
2017-02-04T05:04:08.938Z,997.52
2017-02-04T05:05:19.201Z,997.59
2017-02-04T05:06:29.856Z,997.65
2017-02-04T05:07:40.128Z,997.74
2017-02-04T05:08:50.662Z,997.74
2017-02-04T05:10:00.923Z,997.74
2017-02-04T05:11:11.564Z,997.68
2017-02-04T05:12:22.240Z,997.63
2017-02-04T05:13:32.513Z,997.64
2017-02-04T05:14:43.102Z,997.67
2017-02-04T05:15:53.373Z,997.66
2017-02-04T05:17:04.006Z,997.63
2017-02-04T05:18:14.253Z,997.67
2017-02-04T05:19:24.494Z,997.7
2017-02-04T05:20:34.834Z,997.69
2017-02-04T05:21:45.481Z,997.71
2017-02-04T05:22:55.352Z,997.75
2017-02-04T05:24:05.982Z,997.73
2017-02-04T05:25:16.912Z,997.74
2017-02-04T05:26:27.672Z,997.69
2017-02-04T05:27:37.528Z,997.68
2017-02-04T05:28:47.378Z,997.69
2017-02-04T05:29:58.012Z,997.71
2017-02-04T05:31:07.497Z,997.63
2017-02-04T05:32:17.315Z,997.64
2017-02-04T05:33:27.559Z,997.55
2017-02-04T05:34:38.219Z,997.58
2017-02-04T05:35:48.854Z,997.52
2017-02-04T05:36:59.108Z,997.54
2017-02-04T05:38:09.619Z,997.5
2017-02-04T05:39:20.267Z,997.5
2017-02-04T05:40:30.918Z,997.42
2017-02-04T05:41:41.188Z,997.41
2017-02-04T05:42:50.290Z,997.45
2017-02-04T05:44:01.511Z,997.44
2017-02-04T05:45:11.366Z,997.47
2017-02-04T05:46:22.004Z,997.48
2017-02-04T05:47:31.861Z,997.5
2017-02-04T05:48:42.123Z,997.48
2017-02-04T05:49:52.878Z,997.5
2017-02-04T05:51:03.112Z,997.57
2017-02-04T05:52:12.966Z,997.52
2017-02-04T05:53:22.845Z,997.55
2017-02-04T05:54:33.493Z,997.57
2017-02-04T05:55:43.442Z,997.54
2017-02-04T05:56:53.711Z,997.58
2017-02-04T05:58:03.958Z,997.58
2017-02-04T05:59:14.190Z,997.56
2017-02-04T06:00:24.446Z,997.57
2017-02-04T06:01:35.438Z,997.54
2017-02-04T06:02:46.071Z,997.53
2017-02-04T06:03:56.710Z,997.54
2017-02-04T06:05:07.365Z,997.54
2017-02-04T06:06:17.602Z,997.57
2017-02-04T06:07:28.024Z,997.54
2017-02-04T06:08:38.269Z,997.54
2017-02-04T06:09:48.115Z,997.51
2017-02-04T06:10:57.994Z,997.52
2017-02-04T06:12:08.279Z,997.55
2017-02-04T06:13:19.064Z,997.56
2017-02-04T06:14:28.926Z,997.49
2017-02-04T06:15:39.569Z,997.47
2017-02-04T06:16:50.211Z,997.49
2017-02-04T06:18:00.451Z,997.49
2017-02-04T06:19:10.864Z,997.43
2017-02-04T06:20:21.105Z,997.4
2017-02-04T06:21:31.398Z,997.35
2017-02-04T06:22:42.040Z,997.32
2017-02-04T06:23:53.000Z,997.34
2017-02-04T06:25:03.494Z,997.31
2017-02-04T06:26:13.342Z,997.33
2017-02-04T06:27:23.987Z,997.29
2017-02-04T06:28:34.633Z,997.3
2017-02-04T06:29:44.503Z,997.32
2017-02-04T06:30:54.850Z,997.3
2017-02-04T06:32:05.497Z,997.29
2017-02-04T06:33:14.576Z,997.33
2017-02-04T06:34:24.045Z,997.28
2017-02-04T06:35:34.724Z,997.29
2017-02-04T06:36:44.736Z,997.26
2017-02-04T06:37:54.994Z,997.23
2017-02-04T06:39:05.282Z,997.22
2017-02-04T06:40:15.534Z,997.24
2017-02-04T06:41:25.785Z,997.27
2017-02-04T06:42:36.657Z,997.25
2017-02-04T06:43:46.915Z,997.29
2017-02-04T06:44:57.171Z,997.26
2017-02-04T06:46:07.820Z,997.29
2017-02-04T06:47:18.066Z,997.29
2017-02-04T06:48:28.993Z,997.31
2017-02-04T06:49:39.275Z,997.33
2017-02-04T06:50:48.747Z,997.27
2017-02-04T06:51:59.389Z,997.24
2017-02-04T06:53:09.647Z,997.16
2017-02-04T06:54:20.088Z,997.18
2017-02-04T06:55:30.770Z,997.19
2017-02-04T06:56:41.026Z,997.18
2017-02-04T06:57:51.271Z,997.2
2017-02-04T06:59:01.529Z,997.19
2017-02-04T07:00:11.747Z,997.17
2017-02-04T07:01:21.985Z,997.2
2017-02-04T07:02:32.671Z,997.22
2017-02-04T07:03:42.945Z,997.22
2017-02-04T07:04:53.186Z,997.22
2017-02-04T07:06:03.795Z,997.17
2017-02-04T07:07:14.072Z,997.15
2017-02-04T07:08:24.329Z,997.16
2017-02-04T07:09:34.610Z,997.09
2017-02-04T07:10:44.870Z,997.13
2017-02-04T07:11:55.043Z,997.1
2017-02-04T07:13:05.701Z,997.09
2017-02-04T07:14:15.958Z,997.08
2017-02-04T07:15:26.197Z,997.05
2017-02-04T07:16:36.878Z,997.11
2017-02-04T07:17:47.669Z,997.11
2017-02-04T07:18:58.321Z,997.14
2017-02-04T07:20:08.617Z,997.13
2017-02-04T07:21:19.264Z,997.08
2017-02-04T07:22:29.945Z,997.03
2017-02-04T07:23:40.836Z,997.03
2017-02-04T07:24:51.468Z,997.05
2017-02-04T07:26:01.735Z,997.13
2017-02-04T07:27:12.371Z,997.11
2017-02-04T07:28:23.035Z,997.16
2017-02-04T07:29:34.060Z,997.21
2017-02-04T07:30:44.379Z,997.23
2017-02-04T07:31:55.036Z,997.18
2017-02-04T07:33:05.633Z,997.26
2017-02-04T07:34:15.999Z,997.28
2017-02-04T07:35:26.614Z,997.3
2017-02-04T07:36:36.501Z,997.24
2017-02-04T07:37:46.789Z,997.22
2017-02-04T07:38:57.192Z,997.26
2017-02-04T07:40:07.086Z,997.26
2017-02-04T07:41:18.106Z,997.26
2017-02-04T07:42:28.764Z,997.26
2017-02-04T07:43:39.386Z,997.22
2017-02-04T07:44:49.624Z,997.18
2017-02-04T07:45:59.897Z,997.14
2017-02-04T07:47:10.394Z,997.14
2017-02-04T07:48:21.034Z,997.11
2017-02-04T07:49:31.672Z,997.02
2017-02-04T07:50:41.558Z,996.98
2017-02-04T07:51:51.860Z,996.96
2017-02-04T07:53:02.655Z,996.91
2017-02-04T07:54:13.313Z,996.88
2017-02-04T07:55:23.956Z,996.84
2017-02-04T07:56:34.295Z,996.84
2017-02-04T07:57:44.561Z,996.83
2017-02-04T07:58:54.802Z,996.77
2017-02-04T08:00:05.061Z,996.77
2017-02-04T08:01:15.699Z,996.68
2017-02-04T08:02:25.970Z,996.65
2017-02-04T08:03:36.632Z,996.58
2017-02-04T08:04:47.176Z,996.59
2017-02-04T08:05:57.834Z,996.53
2017-02-04T08:07:08.099Z,996.47
2017-02-04T08:08:18.738Z,996.47
2017-02-04T08:09:29.424Z,996.47
2017-02-04T08:10:39.534Z,996.42
2017-02-04T08:11:50.209Z,996.39
2017-02-04T08:13:00.866Z,996.41
2017-02-04T08:14:11.541Z,996.4
2017-02-04T08:15:22.196Z,996.4
2017-02-04T08:16:32.632Z,996.37
2017-02-04T08:17:42.514Z,996.32
2017-02-04T08:18:53.174Z,996.31
2017-02-04T08:20:03.852Z,996.28
2017-02-04T08:21:14.493Z,996.26
2017-02-04T08:22:25.537Z,996.3
2017-02-04T08:23:36.166Z,996.24
2017-02-04T08:24:46.454Z,996.25
2017-02-04T08:25:56.695Z,996.18
2017-02-04T08:27:07.350Z,996.18
2017-02-04T08:28:17.769Z,996.14
2017-02-04T08:29:28.019Z,996.1
2017-02-04T08:30:38.335Z,996.1
2017-02-04T08:31:48.968Z,996.04
2017-02-04T08:32:59.657Z,996.01
2017-02-04T08:34:10.205Z,996
2017-02-04T08:35:20.889Z,995.95
2017-02-04T08:36:30.352Z,995.89
2017-02-04T08:37:40.990Z,995.87
2017-02-04T08:38:51.274Z,995.89
2017-02-04T08:40:01.614Z,995.87
2017-02-04T08:41:12.253Z,995.86
2017-02-04T08:42:22.873Z,995.87
2017-02-04T08:43:32.722Z,995.9
2017-02-04T08:44:43.385Z,995.91
2017-02-04T08:45:53.993Z,995.92
2017-02-04T08:47:04.641Z,995.9
2017-02-04T08:48:15.305Z,995.89
2017-02-04T08:49:25.537Z,995.86
2017-02-04T08:50:35.806Z,995.85
2017-02-04T08:51:46.799Z,995.87
2017-02-04T08:52:56.289Z,995.88
2017-02-04T08:54:06.548Z,995.85
2017-02-04T08:55:16.790Z,995.83
2017-02-04T08:56:27.033Z,995.88
2017-02-04T08:57:37.519Z,995.86
2017-02-04T08:58:47.760Z,995.88
2017-02-04T08:59:58.393Z,995.85
2017-02-04T09:01:07.891Z,995.86
2017-02-04T09:02:17.748Z,995.84
2017-02-04T09:03:28.742Z,995.85
2017-02-04T09:04:38.203Z,995.81
2017-02-04T09:05:48.072Z,995.78
2017-02-04T09:06:58.343Z,995.78
2017-02-04T09:08:09.044Z,995.72
2017-02-04T09:09:19.538Z,995.71
2017-02-04T09:10:29.833Z,995.7
2017-02-04T09:11:39.710Z,995.72
2017-02-04T09:12:50.002Z,995.71
2017-02-04T09:14:00.731Z,995.67
2017-02-04T09:15:11.305Z,995.65
2017-02-04T09:16:21.542Z,995.6
2017-02-04T09:17:32.174Z,995.56
2017-02-04T09:18:42.477Z,995.5
2017-02-04T09:19:52.357Z,995.49
2017-02-04T09:21:03.003Z,995.43
2017-02-04T09:22:13.733Z,995.47
2017-02-04T09:23:23.679Z,995.44
2017-02-04T09:24:33.731Z,995.4
2017-02-04T09:25:43.226Z,995.37
2017-02-04T09:26:53.720Z,995.31
2017-02-04T09:28:04.388Z,995.28
2017-02-04T09:29:14.641Z,995.3
2017-02-04T09:30:24.933Z,995.25
2017-02-04T09:31:34.818Z,995.23
2017-02-04T09:32:46.494Z,995.25
2017-02-04T09:33:56.798Z,995.24
2017-02-04T09:35:07.059Z,995.24
2017-02-04T09:36:17.367Z,995.22
2017-02-04T09:37:27.232Z,995.14
2017-02-04T09:38:37.785Z,995.09
2017-02-04T09:39:47.260Z,995.09
2017-02-04T09:40:57.898Z,995.05
2017-02-04T09:42:07.753Z,995.02
2017-02-04T09:43:18.442Z,994.95
2017-02-04T09:44:28.558Z,994.91
2017-02-04T09:45:38.863Z,994.83
2017-02-04T09:46:49.128Z,994.83
2017-02-04T09:47:59.822Z,994.89
2017-02-04T09:49:10.090Z,994.8
2017-02-04T09:50:20.271Z,994.75
2017-02-04T09:51:30.155Z,994.79
2017-02-04T09:52:40.030Z,994.75
2017-02-04T09:53:50.684Z,994.72
2017-02-04T09:55:00.945Z,994.69
2017-02-04T09:56:11.836Z,994.68
2017-02-04T09:57:22.552Z,994.72
2017-02-04T09:58:32.023Z,994.71
2017-02-04T09:59:41.938Z,994.7
2017-02-04T10:00:52.190Z,994.64
2017-02-04T10:02:02.414Z,994.69
2017-02-04T10:03:12.736Z,994.71
2017-02-04T10:04:22.277Z,994.71
2017-02-04T10:05:33.057Z,994.66
2017-02-04T10:06:42.953Z,994.68
2017-02-04T10:07:53.553Z,994.69
2017-02-04T10:09:03.836Z,994.68
2017-02-04T10:10:14.126Z,994.69
2017-02-04T10:11:24.384Z,994.65
2017-02-04T10:12:34.679Z,994.66
2017-02-04T10:13:44.834Z,994.67
2017-02-04T10:14:53.962Z,994.66
2017-02-04T10:16:04.270Z,994.72
2017-02-04T10:17:14.560Z,994.67
2017-02-04T10:18:25.248Z,994.67
2017-02-04T10:19:36.215Z,994.7
2017-02-04T10:20:45.732Z,994.68
2017-02-04T10:21:55.622Z,994.75
2017-02-04T10:23:05.887Z,994.75
2017-02-04T10:24:16.157Z,994.66
2017-02-04T10:25:26.771Z,994.67
2017-02-04T10:26:36.304Z,994.72
2017-02-04T10:27:46.730Z,994.68
2017-02-04T10:28:57.517Z,994.65
2017-02-04T10:30:07.401Z,994.7
2017-02-04T10:31:17.580Z,994.65
2017-02-04T10:32:27.487Z,994.66
2017-02-04T10:33:37.750Z,994.61
2017-02-04T10:34:47.521Z,994.62
2017-02-04T10:35:58.302Z,994.66
2017-02-04T10:37:07.630Z,994.63
2017-02-04T10:38:17.894Z,994.64
2017-02-04T10:39:27.752Z,994.64
2017-02-04T10:40:38.016Z,994.64
2017-02-04T10:41:47.895Z,994.6
2017-02-04T10:42:58.031Z,994.61
2017-02-04T10:44:07.900Z,994.62
2017-02-04T10:45:18.610Z,994.59
2017-02-04T10:46:28.155Z,994.64
2017-02-04T10:47:38.438Z,994.61
2017-02-04T10:48:48.864Z,994.67
2017-02-04T10:49:59.111Z,994.64
2017-02-04T10:51:08.989Z,994.6
2017-02-04T10:52:19.651Z,994.58
2017-02-04T10:53:29.585Z,994.56
2017-02-04T10:54:40.471Z,994.53
2017-02-04T10:55:51.106Z,994.5
2017-02-04T10:57:01.372Z,994.5
2017-02-04T10:58:11.219Z,994.44
2017-02-04T10:59:21.932Z,994.43
2017-02-04T11:00:32.923Z,994.5
2017-02-04T11:01:43.415Z,994.43
2017-02-04T11:02:53.337Z,994.44
2017-02-04T11:04:03.664Z,994.5
2017-02-04T11:05:13.757Z,994.52
2017-02-04T11:06:24.375Z,994.54
2017-02-04T11:07:33.443Z,994.53
2017-02-04T11:08:44.119Z,994.55
2017-02-04T11:09:54.780Z,994.54
2017-02-04T11:11:05.055Z,994.52
2017-02-04T11:12:15.956Z,994.49
2017-02-04T11:13:26.603Z,994.46
2017-02-04T11:14:36.471Z,994.4
2017-02-04T11:15:46.722Z,994.45
2017-02-04T11:16:57.380Z,994.39
2017-02-04T11:18:07.497Z,994.36
2017-02-04T11:19:17.400Z,994.33
2017-02-04T11:20:27.697Z,994.31
2017-02-04T11:21:38.330Z,994.28
2017-02-04T11:22:48.610Z,994.24
2017-02-04T11:23:58.858Z,994.22
2017-02-04T11:25:09.121Z,994.27
2017-02-04T11:26:19.438Z,994.27
2017-02-04T11:27:30.089Z,994.29
2017-02-04T11:28:40.778Z,994.29
2017-02-04T11:29:50.893Z,994.32
2017-02-04T11:31:01.541Z,994.32
2017-02-04T11:32:11.846Z,994.29
2017-02-04T11:33:22.562Z,994.3
2017-02-04T11:34:32.094Z,994.3
2017-02-04T11:35:42.585Z,994.32
2017-02-04T11:36:53.247Z,994.27
2017-02-04T11:38:03.550Z,994.3
2017-02-04T11:39:13.827Z,994.31
2017-02-04T11:40:24.082Z,994.3
2017-02-04T11:41:35.333Z,994.29
2017-02-04T11:42:46.274Z,994.28
2017-02-04T11:43:56.173Z,994.24
2017-02-04T11:45:06.466Z,994.21
2017-02-04T11:46:17.149Z,994.19
2017-02-04T11:47:27.758Z,994.17
2017-02-04T11:48:37.267Z,994.12
2017-02-04T11:49:47.944Z,994.14
2017-02-04T11:50:58.581Z,994.15
2017-02-04T11:52:09.233Z,994.14
2017-02-04T11:53:19.626Z,994.11
2017-02-04T11:54:30.340Z,994.11
2017-02-04T11:55:40.985Z,994.11
2017-02-04T11:56:51.734Z,994.15
2017-02-04T11:58:02.086Z,994.13
2017-02-04T11:59:12.894Z,994.14
2017-02-04T12:00:23.149Z,994.13
2017-02-04T12:01:33.423Z,994.15
2017-02-04T12:02:43.952Z,994.12
2017-02-04T12:03:53.850Z,994.1
2017-02-04T12:05:04.841Z,994.06
2017-02-04T12:06:15.086Z,994.09
2017-02-04T12:07:25.334Z,994.08
2017-02-04T12:08:35.640Z,994.07
2017-02-04T12:09:45.893Z,994.09
2017-02-04T12:10:55.947Z,994.08
2017-02-04T12:12:06.588Z,994.06
2017-02-04T12:13:16.450Z,994.08
2017-02-04T12:14:27.100Z,994.07
2017-02-04T12:15:37.385Z,994.06
2017-02-04T12:16:48.297Z,994.04
2017-02-04T12:17:58.664Z,994.03
2017-02-04T12:19:09.317Z,994
2017-02-04T12:20:19.586Z,994
2017-02-04T12:21:29.464Z,994.02
2017-02-04T12:22:40.054Z,994.02
2017-02-04T12:23:50.306Z,993.99
2017-02-04T12:25:00.961Z,993.95
2017-02-04T12:26:10.828Z,993.94
2017-02-04T12:27:20.684Z,993.93
2017-02-04T12:28:31.093Z,993.9
2017-02-04T12:29:41.356Z,993.85
2017-02-04T12:30:52.014Z,993.88
2017-02-04T12:32:02.305Z,993.81
2017-02-04T12:33:12.575Z,993.78
2017-02-04T12:34:23.191Z,993.8
2017-02-04T12:35:33.457Z,993.74
2017-02-04T12:36:43.755Z,993.75
2017-02-04T12:37:54.027Z,993.72
2017-02-04T12:39:03.916Z,993.78
2017-02-04T12:40:14.135Z,993.71
2017-02-04T12:41:24.441Z,993.75
2017-02-04T12:42:35.101Z,993.69
2017-02-04T12:43:44.976Z,993.69
2017-02-04T12:44:54.831Z,993.67
2017-02-04T12:46:05.254Z,993.69
2017-02-04T12:47:15.121Z,993.61
2017-02-04T12:48:25.412Z,993.59
2017-02-04T12:49:35.687Z,993.58
2017-02-04T12:50:45.555Z,993.54
2017-02-04T12:51:55.392Z,993.57
2017-02-04T12:53:05.637Z,993.51
2017-02-04T12:54:15.871Z,993.56
2017-02-04T12:55:25.729Z,993.5
2017-02-04T12:56:36.417Z,993.47
2017-02-04T12:57:46.459Z,993.42
2017-02-04T12:58:57.086Z,993.42
2017-02-04T13:00:07.342Z,993.41
2017-02-04T13:01:18.021Z,993.36
2017-02-04T13:02:28.666Z,993.35
2017-02-04T13:03:38.868Z,993.32
2017-02-04T13:04:49.498Z,993.3
2017-02-04T13:05:59.755Z,993.25
2017-02-04T13:07:10.024Z,993.2
2017-02-04T13:08:19.889Z,993.17
2017-02-04T13:09:30.281Z,993.14
2017-02-04T13:10:40.612Z,993.19
2017-02-04T13:11:50.958Z,993.14
2017-02-04T13:13:01.239Z,993.12
2017-02-04T13:14:11.937Z,993.11
2017-02-04T13:15:22.564Z,993.06
2017-02-04T13:16:32.812Z,993.11
2017-02-04T13:17:43.085Z,993.12
2017-02-04T13:18:53.742Z,993.1
2017-02-04T13:20:04.006Z,993.09
2017-02-04T13:21:13.756Z,993.12
2017-02-04T13:22:23.264Z,993.11
2017-02-04T13:23:33.940Z,993.11
2017-02-04T13:24:43.440Z,993.07
2017-02-04T13:25:53.698Z,993.09
2017-02-04T13:27:04.238Z,993.09
2017-02-04T13:28:14.155Z,993.08
2017-02-04T13:29:24.465Z,993.09
2017-02-04T13:30:34.733Z,993.08
2017-02-04T13:31:44.204Z,993.14
2017-02-04T13:32:55.253Z,993.08
2017-02-04T13:34:05.960Z,993.09
2017-02-04T13:35:16.618Z,993.15
2017-02-04T13:36:27.299Z,993.12
2017-02-04T13:37:37.196Z,993.15
2017-02-04T13:38:48.126Z,993.13
2017-02-04T13:39:58.404Z,993.14
2017-02-04T13:41:08.701Z,993.12
2017-02-04T13:42:18.959Z,993.15
2017-02-04T13:43:29.600Z,993.11
2017-02-04T13:44:40.487Z,993.13
2017-02-04T13:45:50.731Z,993.14
2017-02-04T13:47:01.419Z,993.09
2017-02-04T13:48:11.682Z,993.11
2017-02-04T13:49:22.323Z,993.11
2017-02-04T13:50:32.670Z,993.13
2017-02-04T13:51:43.069Z,993.12
2017-02-04T13:52:53.332Z,993.08
2017-02-04T13:54:03.579Z,993.11
2017-02-04T13:55:13.837Z,993.06
2017-02-04T13:56:24.876Z,993.16
2017-02-04T13:57:35.522Z,993.16
2017-02-04T13:58:45.774Z,993.16
2017-02-04T13:59:56.409Z,993.15
2017-02-04T14:01:06.263Z,993.15
2017-02-04T14:02:16.661Z,993.12
2017-02-04T14:03:27.289Z,993.11
2017-02-04T14:04:37.959Z,993.08
2017-02-04T14:05:48.228Z,993.16
2017-02-04T14:06:58.475Z,993.16
2017-02-04T14:08:09.022Z,993.1
2017-02-04T14:09:19.264Z,993.12
2017-02-04T14:10:29.905Z,993.06
2017-02-04T14:11:40.148Z,993.09
2017-02-04T14:12:50.416Z,993.07
2017-02-04T14:14:01.359Z,993.1
2017-02-04T14:15:11.667Z,993.05
2017-02-04T14:16:21.922Z,993.08
2017-02-04T14:17:32.187Z,993.07
2017-02-04T14:18:42.830Z,993.05
2017-02-04T14:19:52.406Z,993.04
2017-02-04T14:21:02.643Z,993.01
2017-02-04T14:22:12.903Z,992.99
2017-02-04T14:23:22.763Z,992.95
2017-02-04T14:24:33.016Z,992.99
2017-02-04T14:25:43.504Z,992.99
2017-02-04T14:26:53.769Z,992.98
2017-02-04T14:28:04.010Z,992.97
2017-02-04T14:29:14.263Z,992.97
2017-02-04T14:30:24.562Z,992.92
2017-02-04T14:31:34.967Z,992.91
2017-02-04T14:32:44.826Z,992.92
2017-02-04T14:33:55.083Z,992.96
2017-02-04T14:35:05.332Z,992.94
2017-02-04T14:36:15.582Z,992.91
2017-02-04T14:37:26.110Z,992.96
2017-02-04T14:38:36.739Z,992.91
2017-02-04T14:39:46.988Z,992.89
2017-02-04T14:40:56.480Z,992.91